Terminal Aerodrome Forecast
Issued by NWS Twin Cities, MN

Home | Current Version | Previous Version | Graphics & Text | Print | Product List | Glossary On
Versions: 1 2 3 4 5 6 7 8 9 10 11 12
000
FTUS43 KMPX 261100
TAFEAU
TAF
KEAU 261125Z 2612/2712 03004KT P6SM OVC050
     FM261500 01004KT P6SM OVC013
     FM270400 36006KT 4SM -SN BR SCT009 OVC015
     FM270500 36006KT 1SM -SN BR VV009=

USA.gov is the U.S. government's official web portal to all federal, state and local government web resources and services.